createdAt,value
2023-03-23T15:58:23.477Z,11.68
2023-03-23T16:00:53.419Z,13.77
2023-03-23T16:03:27.760Z,11.80
2023-03-23T16:05:57.779Z,12.98
2023-03-23T16:08:27.613Z,13.85
2023-03-23T16:10:55.840Z,13.07
2023-03-23T16:13:24.393Z,11.48
2023-03-23T16:15:52.550Z,11.57
2023-03-23T16:18:22.993Z,12.77
2023-03-23T16:20:51.374Z,12.85
2023-03-23T16:23:19.652Z,11.30
2023-03-23T16:25:47.195Z,10.95
2023-03-23T16:28:15.556Z,11.82
2023-03-23T16:30:45.618Z,11.60
2023-03-23T16:33:13.961Z,12.95
2023-03-23T16:35:42.925Z,12.25
2023-03-23T16:38:16.415Z,11.25
2023-03-23T16:40:46.053Z,12.52
2023-03-23T16:43:14.565Z,12.45
2023-03-23T16:45:44.786Z,11.48
2023-03-23T16:48:16.059Z,10.82
2023-03-23T16:50:45.546Z,10.40
2023-03-23T16:53:13.210Z,8.65
2023-03-23T16:55:42.224Z,9.52
2023-03-23T16:58:16.884Z,8.98
2023-03-23T17:00:49.503Z,8.65
2023-03-23T17:03:19.576Z,7.28
2023-03-23T17:05:51.719Z,8.98
2023-03-23T17:08:21.117Z,10.30
2023-03-23T17:10:49.135Z,9.77
2023-03-23T17:13:18.127Z,10.80
2023-03-23T17:15:47.645Z,10.43
2023-03-23T17:18:16.634Z,8.73
2023-03-23T17:20:44.855Z,9.63
2023-03-23T17:23:13.400Z,9.05
2023-03-23T17:25:42.554Z,9.43
2023-03-23T17:28:10.694Z,10.05
2023-03-23T17:30:44.161Z,9.43
2023-03-23T17:33:12.978Z,8.70
2023-03-23T17:35:42.120Z,10.18
2023-03-23T17:38:09.999Z,10.20
2023-03-23T17:40:38.571Z,11.32
2023-03-23T17:43:07.153Z,11.77
2023-03-23T17:45:36.590Z,11.07
2023-03-23T17:48:07.918Z,11.50
2023-03-23T17:50:36.823Z,11.70
2023-03-23T17:53:04.637Z,11.05
2023-03-23T17:55:32.318Z,11.75
2023-03-23T17:58:00.792Z,10.85
2023-03-23T18:00:28.792Z,11.68
2023-03-23T18:02:57.126Z,12.45
2023-03-23T18:05:27.862Z,12.60
2023-03-23T18:07:55.876Z,12.00
2023-03-23T18:10:23.820Z,10.52
2023-03-23T18:12:52.603Z,10.70
2023-03-23T18:15:20.830Z,10.95
2023-03-23T18:17:51.192Z,12.55
2023-03-23T18:20:19.747Z,11.45
2023-03-23T18:22:49.316Z,10.98
2023-03-23T18:25:17.368Z,11.18
2023-03-23T18:27:46.381Z,10.50
2023-03-23T18:30:14.668Z,10.52
2023-03-23T18:32:42.916Z,11.13
2023-03-23T18:35:11.340Z,12.40
2023-03-23T18:37:39.750Z,11.80
2023-03-23T18:40:12.807Z,11.82
2023-03-23T18:42:45.074Z,11.32
2023-03-23T18:45:13.498Z,11.15
2023-03-23T18:47:41.700Z,11.90
2023-03-23T18:50:11.608Z,11.27
2023-03-23T18:52:40.348Z,12.90
2023-03-23T18:55:09.363Z,13.70
2023-03-23T18:57:40.320Z,11.38
2023-03-23T19:00:10.147Z,12.75
2023-03-23T19:02:39.698Z,14.02
2023-03-23T19:05:08.697Z,24.25
2023-03-23T19:07:38.497Z,24.63
2023-03-23T19:10:06.613Z,25.55
2023-03-23T19:12:34.690Z,23.05
2023-03-23T19:15:02.891Z,16.75
2023-03-23T19:17:31.166Z,15.38
2023-03-23T19:19:59.974Z,14.48
2023-03-23T19:22:28.289Z,14.85
2023-03-23T19:24:56.271Z,15.77
2023-03-23T19:27:24.489Z,15.60
2023-03-23T19:29:52.648Z,13.90
2023-03-23T19:32:21.022Z,17.75
2023-03-23T19:34:51.252Z,16.85
2023-03-23T19:37:19.299Z,16.95
2023-03-23T19:39:47.102Z,17.48
2023-03-23T19:42:18.516Z,16.33
2023-03-23T19:44:47.507Z,18.45
2023-03-23T19:47:16.451Z,18.13
2023-03-23T19:49:44.952Z,16.85
2023-03-23T19:52:14.999Z,20.33
2023-03-23T19:54:45.350Z,17.20
2023-03-23T19:57:14.296Z,20.10
2023-03-23T19:59:42.840Z,18.08
2023-03-23T20:02:13.693Z,17.45
2023-03-23T20:04:43.718Z,18.90
2023-03-23T20:07:12.874Z,18.60
2023-03-23T20:09:41.188Z,18.92
2023-03-23T20:12:09.966Z,20.17
2023-03-23T20:14:44.121Z,19.75
2023-03-23T20:17:14.580Z,18.27
2023-03-23T20:19:43.437Z,17.45
2023-03-23T20:22:11.940Z,17.40
2023-03-23T20:24:40.149Z,16.52
2023-03-23T20:27:08.171Z,16.10
2023-03-23T20:29:36.520Z,14.95
2023-03-23T20:32:04.202Z,20.42
2023-03-23T20:34:32.298Z,19.70
2023-03-23T20:37:02.751Z,16.33
2023-03-23T20:39:33.557Z,17.13
2023-03-23T20:42:04.418Z,15.88
2023-03-23T20:44:35.492Z,17.05
2023-03-23T20:47:04.702Z,15.27
2023-03-23T20:49:34.859Z,16.55
2023-03-23T20:52:04.368Z,19.35
2023-03-23T20:54:32.305Z,15.30
2023-03-23T20:57:01.210Z,17.95
2023-03-23T20:59:29.669Z,18.58
2023-03-23T21:01:57.254Z,17.13
2023-03-23T21:04:27.626Z,20.35
2023-03-23T21:06:56.096Z,16.90
2023-03-23T21:09:25.514Z,17.20
2023-03-23T21:11:54.363Z,17.40
2023-03-23T21:14:22.017Z,16.08
2023-03-23T21:16:50.656Z,15.15
2023-03-23T21:19:20.150Z,19.60
2023-03-23T21:21:56.850Z,16.15
2023-03-23T21:24:29.619Z,21.75
2023-03-23T21:27:00.494Z,17.35
2023-03-23T21:29:29.324Z,16.15
2023-03-23T21:34:29.057Z,17.25
2023-03-23T21:36:57.192Z,16.45
2023-03-23T21:39:24.950Z,15.93
2023-03-23T21:41:53.075Z,15.82
2023-03-23T21:44:21.664Z,16.92
2023-03-23T21:46:52.491Z,17.85
2023-03-23T21:49:20.785Z,19.08
2023-03-23T21:51:49.646Z,20.00
2023-03-23T21:54:17.684Z,16.27
2023-03-23T21:56:45.266Z,19.23
2023-03-23T21:59:13.521Z,19.65
2023-03-23T22:01:41.654Z,19.08
2023-03-23T22:04:28.052Z,18.73
2023-03-23T22:07:15.375Z,22.65
2023-03-23T22:09:45.036Z,23.98
2023-03-23T22:12:13.349Z,20.30
2023-03-23T22:14:41.840Z,21.65
2023-03-23T22:17:09.689Z,22.10
2023-03-23T22:19:39.468Z,18.60
2023-03-23T22:22:07.590Z,21.45
2023-03-23T22:24:36.076Z,19.83
2023-03-23T22:27:04.351Z,18.58
2023-03-23T22:29:32.379Z,19.55
2023-03-23T22:32:00.481Z,18.75
2023-03-23T22:34:28.700Z,18.70
2023-03-23T22:36:57.058Z,18.30
2023-03-23T22:39:25.962Z,19.23
2023-03-23T22:41:53.630Z,20.05
2023-03-23T22:44:21.280Z,19.92
2023-03-23T22:46:49.114Z,18.20
2023-03-23T22:49:17.238Z,18.42
2023-03-23T22:51:45.716Z,20.38
2023-03-23T22:54:13.744Z,16.98
2023-03-23T22:56:41.827Z,19.13
2023-03-23T22:59:11.112Z,18.27
2023-03-23T23:01:39.475Z,20.75
2023-03-23T23:04:07.770Z,20.30
2023-03-23T23:06:35.787Z,22.27
2023-03-23T23:09:03.919Z,22.45
2023-03-23T23:11:31.602Z,22.02
2023-03-23T23:13:59.339Z,21.08
2023-03-23T23:16:29.360Z,21.80
2023-03-23T23:18:57.889Z,24.80
2023-03-23T23:21:26.841Z,23.45
2023-03-23T23:23:55.091Z,23.38
2023-03-23T23:26:23.260Z,22.73
2023-03-23T23:28:51.680Z,24.10
2023-03-23T23:31:29.332Z,22.25
2023-03-23T23:33:59.840Z,23.17
2023-03-23T23:36:30.332Z,24.25
2023-03-23T23:39:00.688Z,25.90
2023-03-23T23:41:30.278Z,22.52
2023-03-23T23:43:58.374Z,23.02
2023-03-23T23:46:26.735Z,21.50
2023-03-23T23:48:54.508Z,25.05
2023-03-23T23:51:27.256Z,22.63
2023-03-23T23:53:59.276Z,23.60
2023-03-23T23:56:28.351Z,25.05
2023-03-23T23:58:57.173Z,22.85
